sensor_id;sensor_type;location;lat;lon;timestamp;P1;durP1;ratioP1;P2;durP2;ratioP2
71387;SDS011;59201;59.902;10.520;2023-03-08T00:00:53;2.85;;;0.80;;
71387;SDS011;59201;59.902;10.520;2023-03-08T00:03:24;1.53;;;0.50;;
71387;SDS011;59201;59.902;10.520;2023-03-08T00:05:53;2.40;;;0.90;;
71387;SDS011;59201;59.902;10.520;2023-03-08T00:08:22;1.55;;;0.60;;
71387;SDS011;59201;59.902;10.520;2023-03-08T00:10:51;2.08;;;0.60;;
71387;SDS011;59201;59.902;10.520;2023-03-08T00:13:21;4.00;;;0.70;;
71387;SDS011;59201;59.902;10.520;2023-03-08T00:15:52;2.63;;;0.60;;
71387;SDS011;59201;59.902;10.520;2023-03-08T00:18:22;0.70;;;0.50;;
71387;SDS011;59201;59.902;10.520;2023-03-08T00:21:02;3.25;;;0.70;;
71387;SDS011;59201;59.902;10.520;2023-03-08T00:23:32;1.77;;;0.50;;
71387;SDS011;59201;59.902;10.520;2023-03-08T00:26:01;1.67;;;0.60;;
71387;SDS011;59201;59.902;10.520;2023-03-08T00:28:33;1.47;;;0.60;;
71387;SDS011;59201;59.902;10.520;2023-03-08T00:31:02;2.17;;;0.55;;
71387;SDS011;59201;59.902;10.520;2023-03-08T00:33:32;1.25;;;0.40;;
71387;SDS011;59201;59.902;10.520;2023-03-08T00:36:04;1.05;;;0.40;;
71387;SDS011;59201;59.902;10.520;2023-03-08T00:38:34;1.98;;;0.43;;
71387;SDS011;59201;59.902;10.520;2023-03-08T00:41:03;0.40;;;0.30;;
71387;SDS011;59201;59.902;10.520;2023-03-08T00:43:33;1.55;;;0.65;;
71387;SDS011;59201;59.902;10.520;2023-03-08T00:46:04;0.85;;;0.40;;
71387;SDS011;59201;59.902;10.520;2023-03-08T00:48:32;1.85;;;0.60;;
71387;SDS011;59201;59.902;10.520;2023-03-08T00:51:02;3.40;;;0.60;;
71387;SDS011;59201;59.902;10.520;2023-03-08T00:53:33;3.33;;;0.70;;
71387;SDS011;59201;59.902;10.520;2023-03-08T00:56:09;2.53;;;0.70;;
71387;SDS011;59201;59.902;10.520;2023-03-08T00:58:43;1.60;;;0.60;;
71387;SDS011;59201;59.902;10.520;2023-03-08T01:01:15;2.50;;;0.70;;
71387;SDS011;59201;59.902;10.520;2023-03-08T01:03:47;1.08;;;0.45;;
71387;SDS011;59201;59.902;10.520;2023-03-08T01:06:18;2.10;;;0.60;;
71387;SDS011;59201;59.902;10.520;2023-03-08T01:08:47;2.67;;;0.68;;
71387;SDS011;59201;59.902;10.520;2023-03-08T01:11:22;1.65;;;0.60;;
71387;SDS011;59201;59.902;10.520;2023-03-08T01:13:51;1.10;;;0.40;;
71387;SDS011;59201;59.902;10.520;2023-03-08T01:16:21;2.30;;;0.70;;
71387;SDS011;59201;59.902;10.520;2023-03-08T01:18:48;0.30;;;0.30;;
71387;SDS011;59201;59.902;10.520;2023-03-08T01:21:16;0.82;;;0.43;;
71387;SDS011;59201;59.902;10.520;2023-03-08T01:23:47;0.73;;;0.50;;
71387;SDS011;59201;59.902;10.520;2023-03-08T01:26:17;0.75;;;0.43;;
71387;SDS011;59201;59.902;10.520;2023-03-08T01:28:50;1.13;;;0.45;;
71387;SDS011;59201;59.902;10.520;2023-03-08T01:31:19;0.87;;;0.40;;
71387;SDS011;59201;59.902;10.520;2023-03-08T01:33:48;1.38;;;0.50;;
71387;SDS011;59201;59.902;10.520;2023-03-08T01:36:19;1.65;;;0.70;;
71387;SDS011;59201;59.902;10.520;2023-03-08T01:38:47;1.92;;;0.50;;
71387;SDS011;59201;59.902;10.520;2023-03-08T01:41:26;1.00;;;0.50;;
71387;SDS011;59201;59.902;10.520;2023-03-08T01:43:54;1.10;;;0.50;;
71387;SDS011;59201;59.902;10.520;2023-03-08T01:46:32;0.30;;;0.30;;
71387;SDS011;59201;59.902;10.520;2023-03-08T01:54:19;1.08;;;0.50;;
71387;SDS011;59201;59.902;10.520;2023-03-08T01:56:49;1.43;;;0.50;;
71387;SDS011;59201;59.902;10.520;2023-03-08T01:59:19;1.60;;;0.60;;
71387;SDS011;59201;59.902;10.520;2023-03-08T02:01:48;1.00;;;0.40;;
71387;SDS011;59201;59.902;10.520;2023-03-08T02:04:18;0.30;;;0.30;;
71387;SDS011;59201;59.902;10.520;2023-03-08T02:06:48;0.95;;;0.50;;
71387;SDS011;59201;59.902;10.520;2023-03-08T02:09:17;1.03;;;0.40;;
71387;SDS011;59201;59.902;10.520;2023-03-08T02:11:46;0.82;;;0.43;;
71387;SDS011;59201;59.902;10.520;2023-03-08T02:14:13;1.15;;;0.50;;
71387;SDS011;59201;59.902;10.520;2023-03-08T02:16:42;2.30;;;0.47;;
71387;SDS011;59201;59.902;10.520;2023-03-08T02:19:13;1.42;;;0.60;;
71387;SDS011;59201;59.902;10.520;2023-03-08T02:21:42;1.67;;;0.60;;
71387;SDS011;59201;59.902;10.520;2023-03-08T02:24:18;0.80;;;0.40;;
71387;SDS011;59201;59.902;10.520;2023-03-08T02:26:50;0.88;;;0.50;;
71387;SDS011;59201;59.902;10.520;2023-03-08T02:29:19;1.73;;;0.60;;
71387;SDS011;59201;59.902;10.520;2023-03-08T02:31:50;1.00;;;0.60;;
71387;SDS011;59201;59.902;10.520;2023-03-08T02:34:19;0.50;;;0.50;;
71387;SDS011;59201;59.902;10.520;2023-03-08T02:36:50;2.40;;;0.60;;
71387;SDS011;59201;59.902;10.520;2023-03-08T02:39:18;0.35;;;0.32;;
71387;SDS011;59201;59.902;10.520;2023-03-08T02:41:49;1.10;;;0.40;;
71387;SDS011;59201;59.902;10.520;2023-03-08T02:44:23;3.03;;;0.50;;
71387;SDS011;59201;59.902;10.520;2023-03-08T02:46:55;1.57;;;0.53;;
71387;SDS011;59201;59.902;10.520;2023-03-08T02:49:22;1.65;;;0.50;;
71387;SDS011;59201;59.902;10.520;2023-03-08T02:51:50;0.52;;;0.40;;
71387;SDS011;59201;59.902;10.520;2023-03-08T02:54:19;1.35;;;0.50;;
71387;SDS011;59201;59.902;10.520;2023-03-08T02:56:48;1.67;;;0.57;;
71387;SDS011;59201;59.902;10.520;2023-03-08T02:59:15;1.37;;;0.50;;
71387;SDS011;59201;59.902;10.520;2023-03-08T03:01:45;2.45;;;0.85;;
71387;SDS011;59201;59.902;10.520;2023-03-08T03:04:13;1.33;;;0.52;;
71387;SDS011;59201;59.902;10.520;2023-03-08T03:06:41;0.95;;;0.40;;
71387;SDS011;59201;59.902;10.520;2023-03-08T03:09:10;1.55;;;0.50;;
71387;SDS011;59201;59.902;10.520;2023-03-08T03:11:40;1.50;;;0.50;;
71387;SDS011;59201;59.902;10.520;2023-03-08T03:14:07;3.95;;;0.80;;
71387;SDS011;59201;59.902;10.520;2023-03-08T03:16:36;2.35;;;0.57;;
71387;SDS011;59201;59.902;10.520;2023-03-08T03:19:06;1.10;;;0.40;;
71387;SDS011;59201;59.902;10.520;2023-03-08T03:21:39;1.42;;;0.70;;
71387;SDS011;59201;59.902;10.520;2023-03-08T03:24:11;1.40;;;0.50;;
71387;SDS011;59201;59.902;10.520;2023-03-08T03:26:40;2.10;;;0.57;;
71387;SDS011;59201;59.902;10.520;2023-03-08T03:29:09;1.92;;;0.50;;
71387;SDS011;59201;59.902;10.520;2023-03-08T03:31:43;0.88;;;0.43;;
71387;SDS011;59201;59.902;10.520;2023-03-08T03:34:11;1.63;;;0.55;;
71387;SDS011;59201;59.902;10.520;2023-03-08T03:36:42;0.63;;;0.60;;
71387;SDS011;59201;59.902;10.520;2023-03-08T03:39:11;3.55;;;0.70;;
71387;SDS011;59201;59.902;10.520;2023-03-08T03:41:46;2.25;;;0.63;;
71387;SDS011;59201;59.902;10.520;2023-03-08T03:44:14;0.63;;;0.32;;
71387;SDS011;59201;59.902;10.520;2023-03-08T03:46:42;2.10;;;0.80;;
71387;SDS011;59201;59.902;10.520;2023-03-08T03:49:11;4.63;;;0.70;;
71387;SDS011;59201;59.902;10.520;2023-03-08T03:51:43;0.35;;;0.30;;
71387;SDS011;59201;59.902;10.520;2023-03-08T03:54:13;1.40;;;0.43;;
71387;SDS011;59201;59.902;10.520;2023-03-08T03:56:43;1.17;;;0.47;;
71387;SDS011;59201;59.902;10.520;2023-03-08T03:59:12;1.02;;;0.47;;
71387;SDS011;59201;59.902;10.520;2023-03-08T04:01:41;1.37;;;0.50;;
71387;SDS011;59201;59.902;10.520;2023-03-08T04:04:11;1.52;;;0.60;;
71387;SDS011;59201;59.902;10.520;2023-03-08T04:06:40;1.35;;;0.50;;
71387;SDS011;59201;59.902;10.520;2023-03-08T04:09:11;1.55;;;0.50;;
71387;SDS011;59201;59.902;10.520;2023-03-08T04:11:40;4.68;;;0.70;;
71387;SDS011;59201;59.902;10.520;2023-03-08T04:14:15;0.63;;;0.50;;
71387;SDS011;59201;59.902;10.520;2023-03-08T04:16:43;0.90;;;0.40;;
71387;SDS011;59201;59.902;10.520;2023-03-08T04:19:13;6.22;;;0.68;;
71387;SDS011;59201;59.902;10.520;2023-03-08T04:21:41;0.75;;;0.35;;
71387;SDS011;59201;59.902;10.520;2023-03-08T04:24:11;6.47;;;0.85;;
71387;SDS011;59201;59.902;10.520;2023-03-08T04:26:43;0.30;;;0.30;;
71387;SDS011;59201;59.902;10.520;2023-03-08T04:29:14;3.03;;;0.38;;
71387;SDS011;59201;59.902;10.520;2023-03-08T04:31:43;1.42;;;0.60;;
71387;SDS011;59201;59.902;10.520;2023-03-08T04:34:14;0.45;;;0.40;;
71387;SDS011;59201;59.902;10.520;2023-03-08T04:36:44;0.73;;;0.50;;
71387;SDS011;59201;59.902;10.520;2023-03-08T04:39:12;0.30;;;0.30;;
71387;SDS011;59201;59.902;10.520;2023-03-08T04:41:39;0.73;;;0.50;;
71387;SDS011;59201;59.902;10.520;2023-03-08T04:44:12;1.15;;;0.45;;
71387;SDS011;59201;59.902;10.520;2023-03-08T04:46:39;4.05;;;0.50;;
71387;SDS011;59201;59.902;10.520;2023-03-08T04:49:07;0.73;;;0.50;;
71387;SDS011;59201;59.902;10.520;2023-03-08T04:51:34;0.93;;;0.43;;
71387;SDS011;59201;59.902;10.520;2023-03-08T04:54:03;0.65;;;0.38;;
71387;SDS011;59201;59.902;10.520;2023-03-08T04:56:32;0.45;;;0.30;;
71387;SDS011;59201;59.902;10.520;2023-03-08T04:59:01;0.45;;;0.28;;
71387;SDS011;59201;59.902;10.520;2023-03-08T05:01:30;0.75;;;0.45;;
71387;SDS011;59201;59.902;10.520;2023-03-08T05:04:01;0.40;;;0.40;;
71387;SDS011;59201;59.902;10.520;2023-03-08T05:06:33;3.33;;;0.63;;
71387;SDS011;59201;59.902;10.520;2023-03-08T05:09:02;2.47;;;0.73;;
71387;SDS011;59201;59.902;10.520;2023-03-08T05:11:33;1.58;;;0.60;;
71387;SDS011;59201;59.902;10.520;2023-03-08T05:14:03;1.10;;;0.60;;
71387;SDS011;59201;59.902;10.520;2023-03-08T05:16:34;0.30;;;0.30;;
71387;SDS011;59201;59.902;10.520;2023-03-08T05:19:03;0.60;;;0.40;;
71387;SDS011;59201;59.902;10.520;2023-03-08T05:21:32;0.77;;;0.45;;
71387;SDS011;59201;59.902;10.520;2023-03-08T05:24:01;0.77;;;0.43;;
71387;SDS011;59201;59.902;10.520;2023-03-08T05:26:29;2.05;;;1.02;;
71387;SDS011;59201;59.902;10.520;2023-03-08T05:29:00;2.30;;;0.80;;
71387;SDS011;59201;59.902;10.520;2023-03-08T05:31:30;2.83;;;0.82;;
71387;SDS011;59201;59.902;10.520;2023-03-08T05:34:00;3.03;;;0.70;;
71387;SDS011;59201;59.902;10.520;2023-03-08T05:36:28;1.45;;;0.50;;
71387;SDS011;59201;59.902;10.520;2023-03-08T05:38:57;2.17;;;1.30;;
71387;SDS011;59201;59.902;10.520;2023-03-08T05:41:24;4.17;;;0.60;;
71387;SDS011;59201;59.902;10.520;2023-03-08T05:43:53;1.85;;;0.40;;
71387;SDS011;59201;59.902;10.520;2023-03-08T05:46:23;1.25;;;0.50;;
71387;SDS011;59201;59.902;10.520;2023-03-08T05:48:53;3.30;;;0.93;;
71387;SDS011;59201;59.902;10.520;2023-03-08T05:51:22;7.88;;;1.45;;
71387;SDS011;59201;59.902;10.520;2023-03-08T05:53:51;6.53;;;1.80;;
71387;SDS011;59201;59.902;10.520;2023-03-08T05:56:19;6.40;;;1.90;;
71387;SDS011;59201;59.902;10.520;2023-03-08T05:58:49;10.32;;;3.03;;
71387;SDS011;59201;59.902;10.520;2023-03-08T06:01:25;9.75;;;3.03;;
71387;SDS011;59201;59.902;10.520;2023-03-08T06:03:56;5.35;;;1.35;;
71387;SDS011;59201;59.902;10.520;2023-03-08T06:06:28;4.03;;;1.37;;
71387;SDS011;59201;59.902;10.520;2023-03-08T06:08:57;2.28;;;0.80;;
71387;SDS011;59201;59.902;10.520;2023-03-08T06:11:27;3.03;;;1.10;;
71387;SDS011;59201;59.902;10.520;2023-03-08T06:13:57;1.38;;;0.70;;
71387;SDS011;59201;59.902;10.520;2023-03-08T06:16:26;3.83;;;1.30;;
71387;SDS011;59201;59.902;10.520;2023-03-08T06:18:55;6.37;;;1.27;;
71387;SDS011;59201;59.902;10.520;2023-03-08T06:21:23;4.35;;;1.10;;
71387;SDS011;59201;59.902;10.520;2023-03-08T06:23:51;3.00;;;1.05;;
71387;SDS011;59201;59.902;10.520;2023-03-08T06:26:22;3.78;;;1.40;;
71387;SDS011;59201;59.902;10.520;2023-03-08T06:28:50;4.55;;;1.20;;
71387;SDS011;59201;59.902;10.520;2023-03-08T06:31:20;5.07;;;1.40;;
71387;SDS011;59201;59.902;10.520;2023-03-08T06:33:53;4.35;;;1.10;;
71387;SDS011;59201;59.902;10.520;2023-03-08T06:36:21;4.00;;;1.02;;
71387;SDS011;59201;59.902;10.520;2023-03-08T06:38:49;16.38;;;2.25;;
71387;SDS011;59201;59.902;10.520;2023-03-08T06:41:17;8.55;;;1.70;;
71387;SDS011;59201;59.902;10.520;2023-03-08T06:43:48;9.47;;;1.53;;
71387;SDS011;59201;59.902;10.520;2023-03-08T06:46:16;3.10;;;1.50;;
71387;SDS011;59201;59.902;10.520;2023-03-08T06:48:46;10.38;;;1.75;;
71387;SDS011;59201;59.902;10.520;2023-03-08T06:51:17;14.05;;;2.88;;
71387;SDS011;59201;59.902;10.520;2023-03-08T06:53:46;9.40;;;3.13;;
71387;SDS011;59201;59.902;10.520;2023-03-08T06:56:15;10.87;;;2.70;;
71387;SDS011;59201;59.902;10.520;2023-03-08T06:58:46;10.15;;;2.00;;
71387;SDS011;59201;59.902;10.520;2023-03-08T07:01:13;5.15;;;1.45;;
71387;SDS011;59201;59.902;10.520;2023-03-08T07:03:43;9.38;;;1.77;;
71387;SDS011;59201;59.902;10.520;2023-03-08T07:06:19;10.55;;;2.00;;
71387;SDS011;59201;59.902;10.520;2023-03-08T07:08:49;7.20;;;1.23;;
71387;SDS011;59201;59.902;10.520;2023-03-08T07:11:17;4.80;;;1.00;;
71387;SDS011;59201;59.902;10.520;2023-03-08T07:13:47;8.05;;;1.70;;
71387;SDS011;59201;59.902;10.520;2023-03-08T07:16:16;5.10;;;1.45;;
71387;SDS011;59201;59.902;10.520;2023-03-08T07:18:44;10.23;;;1.80;;
71387;SDS011;59201;59.902;10.520;2023-03-08T07:21:12;10.73;;;1.90;;
71387;SDS011;59201;59.902;10.520;2023-03-08T07:23:41;11.55;;;1.00;;
71387;SDS011;59201;59.902;10.520;2023-03-08T07:26:09;5.28;;;1.23;;
71387;SDS011;59201;59.902;10.520;2023-03-08T07:28:37;5.68;;;1.67;;
71387;SDS011;59201;59.902;10.520;2023-03-08T07:31:09;4.50;;;1.00;;
71387;SDS011;59201;59.902;10.520;2023-03-08T07:33:37;6.37;;;1.60;;
71387;SDS011;59201;59.902;10.520;2023-03-08T07:36:07;10.90;;;3.05;;
71387;SDS011;59201;59.902;10.520;2023-03-08T07:38:36;5.22;;;1.33;;
71387;SDS011;59201;59.902;10.520;2023-03-08T07:41:05;9.77;;;2.05;;
71387;SDS011;59201;59.902;10.520;2023-03-08T07:43:34;5.55;;;1.77;;
71387;SDS011;59201;59.902;10.520;2023-03-08T07:46:03;6.23;;;1.53;;
71387;SDS011;59201;59.902;10.520;2023-03-08T07:48:31;6.90;;;1.77;;
71387;SDS011;59201;59.902;10.520;2023-03-08T07:51:02;8.27;;;2.50;;
71387;SDS011;59201;59.902;10.520;2023-03-08T07:53:32;5.63;;;1.45;;
71387;SDS011;59201;59.902;10.520;2023-03-08T07:56:02;11.85;;;2.63;;
71387;SDS011;59201;59.902;10.520;2023-03-08T07:58:30;7.57;;;2.27;;
71387;SDS011;59201;59.902;10.520;2023-03-08T08:01:00;7.25;;;2.83;;
71387;SDS011;59201;59.902;10.520;2023-03-08T08:03:34;6.78;;;2.63;;
71387;SDS011;59201;59.902;10.520;2023-03-08T08:06:04;7.43;;;2.28;;
71387;SDS011;59201;59.902;10.520;2023-03-08T08:08:38;6.32;;;1.73;;
71387;SDS011;59201;59.902;10.520;2023-03-08T08:11:14;16.03;;;2.87;;
71387;SDS011;59201;59.902;10.520;2023-03-08T08:13:43;7.88;;;1.83;;
71387;SDS011;59201;59.902;10.520;2023-03-08T08:16:15;10.40;;;1.95;;
71387;SDS011;59201;59.902;10.520;2023-03-08T08:18:44;9.25;;;2.13;;
71387;SDS011;59201;59.902;10.520;2023-03-08T08:21:13;5.85;;;1.80;;
71387;SDS011;59201;59.902;10.520;2023-03-08T08:23:43;7.00;;;1.40;;
71387;SDS011;59201;59.902;10.520;2023-03-08T08:26:12;1.35;;;0.50;;
71387;SDS011;59201;59.902;10.520;2023-03-08T08:28:40;5.97;;;1.70;;
71387;SDS011;59201;59.902;10.520;2023-03-08T08:31:09;2.25;;;0.70;;
71387;SDS011;59201;59.902;10.520;2023-03-08T08:33:39;6.90;;;1.48;;
71387;SDS011;59201;59.902;10.520;2023-03-08T08:36:10;4.97;;;1.27;;
71387;SDS011;59201;59.902;10.520;2023-03-08T08:38:40;2.28;;;0.80;;
71387;SDS011;59201;59.902;10.520;2023-03-08T08:41:19;7.15;;;1.15;;
71387;SDS011;59201;59.902;10.520;2023-03-08T08:43:53;5.43;;;1.20;;
71387;SDS011;59201;59.902;10.520;2023-03-08T08:46:30;3.95;;;1.15;;
71387;SDS011;59201;59.902;10.520;2023-03-08T08:49:01;5.03;;;1.03;;
71387;SDS011;59201;59.902;10.520;2023-03-08T08:51:30;6.47;;;1.20;;
71387;SDS011;59201;59.902;10.520;2023-03-08T08:53:59;2.47;;;1.00;;
71387;SDS011;59201;59.902;10.520;2023-03-08T08:56:37;4.32;;;1.20;;
71387;SDS011;59201;59.902;10.520;2023-03-08T08:59:13;9.25;;;1.23;;
71387;SDS011;59201;59.902;10.520;2023-03-08T09:01:52;7.70;;;1.23;;
71387;SDS011;59201;59.902;10.520;2023-03-08T09:04:27;2.25;;;0.52;;
71387;SDS011;59201;59.902;10.520;2023-03-08T09:06:55;6.28;;;1.38;;
71387;SDS011;59201;59.902;10.520;2023-03-08T09:09:24;1.90;;;0.70;;
71387;SDS011;59201;59.902;10.520;2023-03-08T09:11:53;2.58;;;0.80;;
71387;SDS011;59201;59.902;10.520;2023-03-08T09:14:24;2.57;;;1.33;;
71387;SDS011;59201;59.902;10.520;2023-03-08T09:16:52;6.75;;;1.15;;
71387;SDS011;59201;59.902;10.520;2023-03-08T09:19:19;6.20;;;1.27;;
71387;SDS011;59201;59.902;10.520;2023-03-08T09:21:53;10.57;;;1.30;;
71387;SDS011;59201;59.902;10.520;2023-03-08T09:24:23;1.65;;;0.93;;
71387;SDS011;59201;59.902;10.520;2023-03-08T09:26:51;2.17;;;0.80;;
71387;SDS011;59201;59.902;10.520;2023-03-08T09:29:21;5.35;;;1.25;;
71387;SDS011;59201;59.902;10.520;2023-03-08T09:31:49;7.40;;;1.00;;
71387;SDS011;59201;59.902;10.520;2023-03-08T09:34:18;1.88;;;0.60;;
71387;SDS011;59201;59.902;10.520;2023-03-08T09:36:47;10.02;;;1.15;;
71387;SDS011;59201;59.902;10.520;2023-03-08T09:39:18;6.53;;;1.03;;
71387;SDS011;59201;59.902;10.520;2023-03-08T09:41:53;1.98;;;0.60;;
71387;SDS011;59201;59.902;10.520;2023-03-08T09:49:40;1.33;;;0.50;;
71387;SDS011;59201;59.902;10.520;2023-03-08T09:54:58;1.40;;;0.70;;
71387;SDS011;59201;59.902;10.520;2023-03-08T09:57:29;3.90;;;1.10;;
71387;SDS011;59201;59.902;10.520;2023-03-08T09:59:58;2.92;;;1.45;;
71387;SDS011;59201;59.902;10.520;2023-03-08T10:05:03;2.13;;;0.80;;
71387;SDS011;59201;59.902;10.520;2023-03-08T10:13:25;2.17;;;0.63;;
71387;SDS011;59201;59.902;10.520;2023-03-08T10:16:02;1.05;;;0.50;;
71387;SDS011;59201;59.902;10.520;2023-03-08T10:18:38;2.50;;;1.03;;
71387;SDS011;59201;59.902;10.520;2023-03-08T10:21:09;1.38;;;0.57;;
71387;SDS011;59201;59.902;10.520;2023-03-08T10:23:38;6.05;;;1.30;;
71387;SDS011;59201;59.902;10.520;2023-03-08T10:26:12;1.65;;;0.57;;
71387;SDS011;59201;59.902;10.520;2023-03-08T10:28:40;3.45;;;0.80;;
71387;SDS011;59201;59.902;10.520;2023-03-08T10:33:47;3.00;;;0.90;;
71387;SDS011;59201;59.902;10.520;2023-03-08T10:36:17;5.25;;;1.00;;
71387;SDS011;59201;59.902;10.520;2023-03-08T10:38:58;4.80;;;1.25;;
71387;SDS011;59201;59.902;10.520;2023-03-08T10:41:26;2.70;;;0.80;;
71387;SDS011;59201;59.902;10.520;2023-03-08T10:43:59;4.03;;;1.50;;
71387;SDS011;59201;59.902;10.520;2023-03-08T10:46:29;7.55;;;1.00;;
71387;SDS011;59201;59.902;10.520;2023-03-08T10:49:06;5.53;;;1.02;;
71387;SDS011;59201;59.902;10.520;2023-03-08T10:51:39;11.65;;;1.75;;
71387;SDS011;59201;59.902;10.520;2023-03-08T10:54:09;2.65;;;0.95;;
71387;SDS011;59201;59.902;10.520;2023-03-08T10:56:44;4.07;;;0.90;;
71387;SDS011;59201;59.902;10.520;2023-03-08T10:59:18;5.25;;;1.15;;
71387;SDS011;59201;59.902;10.520;2023-03-08T11:01:53;6.72;;;0.80;;
71387;SDS011;59201;59.902;10.520;2023-03-08T11:04:23;5.15;;;1.30;;
71387;SDS011;59201;59.902;10.520;2023-03-08T11:06:52;3.13;;;0.90;;
71387;SDS011;59201;59.902;10.520;2023-03-08T11:09:30;2.70;;;0.80;;
71387;SDS011;59201;59.902;10.520;2023-03-08T11:12:02;4.88;;;1.35;;
71387;SDS011;59201;59.902;10.520;2023-03-08T11:14:34;1.23;;;0.57;;
71387;SDS011;59201;59.902;10.520;2023-03-08T11:17:13;4.70;;;1.10;;
71387;SDS011;59201;59.902;10.520;2023-03-08T11:25:00;7.05;;;1.52;;
71387;SDS011;59201;59.902;10.520;2023-03-08T11:35:42;1.97;;;0.80;;
71387;SDS011;59201;59.902;10.520;2023-03-08T11:53:27;4.55;;;1.00;;
71387;SDS011;59201;59.902;10.520;2023-03-08T11:58:38;3.45;;;1.00;;
71387;SDS011;59201;59.902;10.520;2023-03-08T12:01:09;5.37;;;1.17;;
71387;SDS011;59201;59.902;10.520;2023-03-08T12:03:43;6.85;;;0.98;;
71387;SDS011;59201;59.902;10.520;2023-03-08T12:06:15;4.90;;;1.10;;
71387;SDS011;59201;59.902;10.520;2023-03-08T12:08:47;6.85;;;1.08;;
71387;SDS011;59201;59.902;10.520;2023-03-08T12:13:47;4.23;;;0.70;;
71387;SDS011;59201;59.902;10.520;2023-03-08T12:18:50;2.92;;;0.85;;
71387;SDS011;59201;59.902;10.520;2023-03-08T12:29:36;4.47;;;0.90;;
71387;SDS011;59201;59.902;10.520;2023-03-08T12:32:11;6.38;;;0.85;;
71387;SDS011;59201;59.902;10.520;2023-03-08T12:34:43;10.10;;;1.10;;
71387;SDS011;59201;59.902;10.520;2023-03-08T12:37:18;6.97;;;2.33;;
71387;SDS011;59201;59.902;10.520;2023-03-08T12:39:54;4.10;;;0.87;;
71387;SDS011;59201;59.902;10.520;2023-03-08T12:42:31;4.10;;;1.00;;
71387;SDS011;59201;59.902;10.520;2023-03-08T12:45:24;5.40;;;1.00;;
71387;SDS011;59201;59.902;10.520;2023-03-08T12:47:56;2.50;;;0.70;;
71387;SDS011;59201;59.902;10.520;2023-03-08T12:50:25;3.83;;;0.80;;
71387;SDS011;59201;59.902;10.520;2023-03-08T12:53:00;8.03;;;0.93;;
71387;SDS011;59201;59.902;10.520;2023-03-08T12:55:30;4.82;;;1.00;;
71387;SDS011;59201;59.902;10.520;2023-03-08T12:58:00;5.70;;;1.17;;
71387;SDS011;59201;59.902;10.520;2023-03-08T13:00:34;2.88;;;0.80;;
71387;SDS011;59201;59.902;10.520;2023-03-08T13:05:35;0.93;;;0.50;;
71387;SDS011;59201;59.902;10.520;2023-03-08T13:13:22;1.60;;;0.50;;
71387;SDS011;59201;59.902;10.520;2023-03-08T13:16:02;4.88;;;0.80;;
71387;SDS011;59201;59.902;10.520;2023-03-08T13:18:32;1.73;;;0.60;;
71387;SDS011;59201;59.902;10.520;2023-03-08T13:23:40;2.58;;;0.88;;
71387;SDS011;59201;59.902;10.520;2023-03-08T13:28:41;1.83;;;0.60;;
71387;SDS011;59201;59.902;10.520;2023-03-08T13:31:29;3.50;;;0.90;;
71387;SDS011;59201;59.902;10.520;2023-03-08T13:34:29;5.63;;;0.80;;
71387;SDS011;59201;59.902;10.520;2023-03-08T13:37:24;4.72;;;0.80;;
71387;SDS011;59201;59.902;10.520;2023-03-08T13:40:14;2.47;;;0.70;;
71387;SDS011;59201;59.902;10.520;2023-03-08T13:43:12;4.80;;;0.90;;
71387;SDS011;59201;59.902;10.520;2023-03-08T13:45:46;6.07;;;0.87;;
71387;SDS011;59201;59.902;10.520;2023-03-08T13:48:15;1.23;;;0.50;;
71387;SDS011;59201;59.902;10.520;2023-03-08T13:50:45;2.47;;;0.77;;
71387;SDS011;59201;59.902;10.520;2023-03-08T13:53:33;7.30;;;0.90;;
71387;SDS011;59201;59.902;10.520;2023-03-08T13:56:03;2.10;;;0.65;;
71387;SDS011;59201;59.902;10.520;2023-03-08T13:58:46;5.20;;;0.83;;
71387;SDS011;59201;59.902;10.520;2023-03-08T14:01:30;3.80;;;0.88;;
71387;SDS011;59201;59.902;10.520;2023-03-08T14:03:57;2.92;;;0.70;;
71387;SDS011;59201;59.902;10.520;2023-03-08T14:06:48;2.03;;;0.70;;
71387;SDS011;59201;59.902;10.520;2023-03-08T14:09:29;6.20;;;1.10;;
71387;SDS011;59201;59.902;10.520;2023-03-08T14:12:12;5.40;;;0.80;;
71387;SDS011;59201;59.902;10.520;2023-03-08T14:14:58;1.13;;;0.50;;
71387;SDS011;59201;59.902;10.520;2023-03-08T14:17:27;3.70;;;0.80;;
71387;SDS011;59201;59.902;10.520;2023-03-08T14:19:56;0.90;;;0.40;;
71387;SDS011;59201;59.902;10.520;2023-03-08T14:22:25;2.22;;;0.70;;
71387;SDS011;59201;59.902;10.520;2023-03-08T14:24:58;2.63;;;0.67;;
71387;SDS011;59201;59.902;10.520;2023-03-08T14:27:35;6.72;;;0.90;;
71387;SDS011;59201;59.902;10.520;2023-03-08T14:32:59;2.58;;;0.70;;
71387;SDS011;59201;59.902;10.520;2023-03-08T14:35:50;3.08;;;0.77;;
71387;SDS011;59201;59.902;10.520;2023-03-08T14:38:25;4.43;;;0.80;;
71387;SDS011;59201;59.902;10.520;2023-03-08T14:41:13;3.70;;;0.70;;
71387;SDS011;59201;59.902;10.520;2023-03-08T14:43:50;5.57;;;0.77;;
71387;SDS011;59201;59.902;10.520;2023-03-08T14:46:19;2.05;;;0.60;;
71387;SDS011;59201;59.902;10.520;2023-03-08T14:48:55;4.15;;;0.80;;
71387;SDS011;59201;59.902;10.520;2023-03-08T14:51:25;1.10;;;0.50;;
71387;SDS011;59201;59.902;10.520;2023-03-08T14:54:22;3.47;;;0.73;;
71387;SDS011;59201;59.902;10.520;2023-03-08T14:57:00;4.32;;;0.80;;
71387;SDS011;59201;59.902;10.520;2023-03-08T14:59:32;2.42;;;0.60;;
71387;SDS011;59201;59.902;10.520;2023-03-08T15:02:11;2.97;;;0.70;;
71387;SDS011;59201;59.902;10.520;2023-03-08T15:05:05;3.83;;;0.50;;
71387;SDS011;59201;59.902;10.520;2023-03-08T15:07:47;0.95;;;0.40;;
71387;SDS011;59201;59.902;10.520;2023-03-08T15:10:40;1.70;;;0.60;;
71387;SDS011;59201;59.902;10.520;2023-03-08T15:13:22;1.92;;;0.60;;
71387;SDS011;59201;59.902;10.520;2023-03-08T15:16:11;1.00;;;0.50;;
71387;SDS011;59201;59.902;10.520;2023-03-08T15:18:42;2.63;;;0.60;;
71387;SDS011;59201;59.902;10.520;2023-03-08T15:21:13;2.33;;;0.70;;
71387;SDS011;59201;59.902;10.520;2023-03-08T15:23:43;4.07;;;1.38;;
71387;SDS011;59201;59.902;10.520;2023-03-08T15:26:22;4.30;;;0.95;;
71387;SDS011;59201;59.902;10.520;2023-03-08T15:28:52;3.72;;;1.10;;
71387;SDS011;59201;59.902;10.520;2023-03-08T15:31:21;2.80;;;0.90;;
71387;SDS011;59201;59.902;10.520;2023-03-08T15:33:52;2.83;;;0.70;;
71387;SDS011;59201;59.902;10.520;2023-03-08T15:36:22;3.30;;;0.90;;
71387;SDS011;59201;59.902;10.520;2023-03-08T15:38:51;9.70;;;1.40;;
71387;SDS011;59201;59.902;10.520;2023-03-08T15:41:19;15.70;;;1.67;;
71387;SDS011;59201;59.902;10.520;2023-03-08T15:43:49;9.53;;;1.13;;
71387;SDS011;59201;59.902;10.520;2023-03-08T15:46:19;6.60;;;1.08;;
71387;SDS011;59201;59.902;10.520;2023-03-08T15:48:49;3.53;;;0.98;;
71387;SDS011;59201;59.902;10.520;2023-03-08T15:51:18;3.67;;;0.85;;
71387;SDS011;59201;59.902;10.520;2023-03-08T15:53:47;10.95;;;0.95;;
71387;SDS011;59201;59.902;10.520;2023-03-08T15:56:18;5.23;;;0.80;;
71387;SDS011;59201;59.902;10.520;2023-03-08T15:58:50;4.50;;;0.80;;
71387;SDS011;59201;59.902;10.520;2023-03-08T16:01:19;6.97;;;1.20;;
71387;SDS011;59201;59.902;10.520;2023-03-08T16:03:51;5.15;;;0.80;;
71387;SDS011;59201;59.902;10.520;2023-03-08T16:06:20;5.60;;;0.93;;
71387;SDS011;59201;59.902;10.520;2023-03-08T16:08:50;3.67;;;0.90;;
71387;SDS011;59201;59.902;10.520;2023-03-08T16:11:21;6.22;;;0.80;;
71387;SDS011;59201;59.902;10.520;2023-03-08T16:13:55;4.78;;;1.00;;
71387;SDS011;59201;59.902;10.520;2023-03-08T16:16:24;3.85;;;0.90;;
71387;SDS011;59201;59.902;10.520;2023-03-08T16:18:54;5.50;;;1.10;;
71387;SDS011;59201;59.902;10.520;2023-03-08T16:21:23;3.03;;;0.83;;
71387;SDS011;59201;59.902;10.520;2023-03-08T16:23:55;4.60;;;1.10;;